createdAt,value
2023-01-05T00:01:52.802Z,7.40
2023-01-05T00:06:49.309Z,7.52
2023-01-05T00:12:04.192Z,7.47
2023-01-05T00:17:19.936Z,7.43
2023-01-05T00:22:34.156Z,7.51
2023-01-05T00:27:31.043Z,7.07
2023-01-05T00:32:28.428Z,6.55
2023-01-05T00:37:25.669Z,6.66
2023-01-05T00:42:23.218Z,6.63
2023-01-05T00:47:19.764Z,6.81
2023-01-05T00:52:17.126Z,6.76
2023-01-05T00:57:14.207Z,6.93
2023-01-05T01:02:11.423Z,6.94
2023-01-05T01:07:08.296Z,7.07
2023-01-05T01:12:05.647Z,7.09
2023-01-05T01:17:02.253Z,7.11
2023-01-05T01:21:58.902Z,7.16
2023-01-05T01:26:56.060Z,7.37
2023-01-05T01:31:53.811Z,7.39
2023-01-05T01:36:50.418Z,7.36
2023-01-05T01:41:52.093Z,7.33
2023-01-05T01:46:48.702Z,7.39
2023-01-05T01:51:47.813Z,7.38
2023-01-05T01:56:49.449Z,7.43
2023-01-05T02:01:48.965Z,7.17
2023-01-05T02:06:46.368Z,7.24
2023-01-05T02:11:46.650Z,7.19
2023-01-05T02:16:57.149Z,7.43
2023-01-05T02:22:01.171Z,7.37
2023-01-05T02:27:09.162Z,7.31
2023-01-05T02:32:12.985Z,7.12
2023-01-05T02:37:13.919Z,7.25
2023-01-05T02:42:15.135Z,7.45
2023-01-05T02:47:27.733Z,7.44
2023-01-05T02:52:27.372Z,7.68
2023-01-05T02:57:46.362Z,7.65
2023-01-05T03:02:49.278Z,7.58
2023-01-05T03:07:47.831Z,7.36
2023-01-05T03:13:04.049Z,7.38
2023-01-05T03:18:04.256Z,6.94
2023-01-05T03:23:21.911Z,6.87
2023-01-05T03:28:39.067Z,6.95
2023-01-05T03:34:01.470Z,7.03
2023-01-05T03:39:01.408Z,6.95
2023-01-05T03:44:00.231Z,6.85
2023-01-05T03:49:00.965Z,6.90
2023-01-05T03:53:58.040Z,7.17
2023-01-05T03:58:55.553Z,7.35
2023-01-05T04:03:53.078Z,7.20
2023-01-05T04:08:49.940Z,7.33
2023-01-05T04:13:48.117Z,7.22
2023-01-05T04:18:46.184Z,7.18
2023-01-05T04:23:46.557Z,7.53
2023-01-05T04:28:44.815Z,7.39
2023-01-05T04:33:44.763Z,7.47
2023-01-05T04:38:46.813Z,7.56
2023-01-05T04:43:43.825Z,7.85
2023-01-05T04:48:42.419Z,7.40
2023-01-05T04:53:39.180Z,7.33
2023-01-05T04:58:39.420Z,7.57
2023-01-05T05:03:37.547Z,7.55
2023-01-05T05:08:38.401Z,7.58
2023-01-05T05:13:35.264Z,7.60
2023-01-05T05:18:33.459Z,7.71
2023-01-05T05:23:30.975Z,7.75
2023-01-05T05:28:29.132Z,7.64
2023-01-05T05:33:26.176Z,7.77
2023-01-05T05:38:23.496Z,7.82
2023-01-05T05:43:20.045Z,7.82
2023-01-05T05:48:16.701Z,7.80
2023-01-05T05:53:13.398Z,7.80
2023-01-05T05:58:10.810Z,7.76
2023-01-05T06:03:07.410Z,7.49
2023-01-05T06:08:04.286Z,7.51
2023-01-05T06:13:01.001Z,7.62
2023-01-05T06:17:58.221Z,7.73
2023-01-05T06:22:54.927Z,7.83
2023-01-05T06:27:54.443Z,7.84
2023-01-05T06:32:51.108Z,7.92
2023-01-05T06:37:48.510Z,7.97
2023-01-05T06:42:45.071Z,7.67
2023-01-05T06:47:41.925Z,7.37
2023-01-05T06:52:39.556Z,7.37
2023-01-05T06:57:36.904Z,7.63
2023-01-05T07:02:33.819Z,7.66
2023-01-05T07:07:30.312Z,7.64
2023-01-05T07:12:26.902Z,7.83
2023-01-05T07:17:24.410Z,7.74
2023-01-05T07:22:21.295Z,8.00
2023-01-05T07:27:17.949Z,8.23
2023-01-05T07:32:14.592Z,8.35
2023-01-05T07:37:23.875Z,8.44
2023-01-05T07:42:27.351Z,8.37
2023-01-05T07:47:30.294Z,8.53
2023-01-05T07:52:32.939Z,8.89
2023-01-05T07:57:36.985Z,9.09
2023-01-05T08:02:49.978Z,9.06
2023-01-05T08:08:09.142Z,9.15
2023-01-05T08:13:49.527Z,9.22
2023-01-05T08:19:11.021Z,9.39
2023-01-05T08:24:16.087Z,9.47
2023-01-05T08:29:29.974Z,9.47
2023-01-05T08:34:46.193Z,9.62
2023-01-05T08:40:19.676Z,9.73
2023-01-05T08:45:49.451Z,9.60
2023-01-05T08:50:48.171Z,9.46
2023-01-05T08:55:49.831Z,9.63
2023-01-05T09:00:59.882Z,9.73
2023-01-05T09:06:02.706Z,9.80
2023-01-05T09:11:06.167Z,9.68
2023-01-05T09:16:07.224Z,9.82
2023-01-05T09:21:05.505Z,9.71
2023-01-05T09:26:03.475Z,9.94
2023-01-05T09:31:05.739Z,9.76
2023-01-05T09:36:02.559Z,9.87
2023-01-05T09:41:03.665Z,9.73
2023-01-05T09:46:03.069Z,9.56
2023-01-05T09:50:59.670Z,9.61
2023-01-05T09:55:57.546Z,9.78
2023-01-05T10:01:04.496Z,9.76
2023-01-05T10:06:01.612Z,9.94
2023-01-05T10:11:20.895Z,10.09
2023-01-05T10:16:18.396Z,10.14
2023-01-05T10:21:20.967Z,10.34
2023-01-05T10:26:21.456Z,10.50
2023-01-05T10:31:23.342Z,10.58
2023-01-05T10:37:06.187Z,10.64
2023-01-05T10:41:48.066Z,10.95
2023-01-05T10:46:52.414Z,10.92
2023-01-05T10:51:56.293Z,10.95
2023-01-05T10:56:53.498Z,10.94
2023-01-05T11:01:50.874Z,10.98
2023-01-05T11:06:47.665Z,11.16
2023-01-05T11:11:52.374Z,11.20
2023-01-05T11:16:50.540Z,11.52
2023-01-05T11:21:48.281Z,11.48
2023-01-05T11:26:48.103Z,11.26
2023-01-05T11:31:47.444Z,11.25
2023-01-05T11:37:49.535Z,11.16
2023-01-05T11:42:46.879Z,11.38
2023-01-05T11:47:44.951Z,11.45
2023-01-05T11:52:46.840Z,11.51
2023-01-05T11:57:43.647Z,11.44
2023-01-05T12:03:01.779Z,11.62
2023-01-05T12:07:59.912Z,11.82
2023-01-05T12:13:00.774Z,11.78
2023-01-05T12:18:10.830Z,11.83
2023-01-05T12:23:13.310Z,11.95
2023-01-05T12:28:39.733Z,12.01
2023-01-05T12:34:04.976Z,11.80
2023-01-05T12:39:09.611Z,12.07
2023-01-05T12:44:14.629Z,12.02
2023-01-05T12:49:15.144Z,12.03
2023-01-05T12:54:17.742Z,12.27
2023-01-05T12:59:17.138Z,12.17
2023-01-05T13:04:27.427Z,12.12
2023-01-05T13:09:30.339Z,12.17
2023-01-05T13:20:36.145Z,12.04
2023-01-05T13:25:35.749Z,12.24
2023-01-05T13:30:45.266Z,12.26
2023-01-05T13:35:53.630Z,12.06
2023-01-05T13:40:56.389Z,12.28
2023-01-05T13:46:02.559Z,12.35
2023-01-05T13:51:12.424Z,12.43
2023-01-05T13:56:14.663Z,12.44
2023-01-05T14:01:17.242Z,12.44
2023-01-05T14:06:19.670Z,12.41
2023-01-05T14:11:17.794Z,12.29
2023-01-05T14:16:47.774Z,12.22
2023-01-05T14:21:59.817Z,12.21
2023-01-05T14:27:01.095Z,12.16
2023-01-05T14:32:05.533Z,12.24
2023-01-05T14:37:04.993Z,12.38
2023-01-05T14:42:04.225Z,12.28
2023-01-05T14:47:01.581Z,12.12
2023-01-05T14:51:59.255Z,12.28
2023-01-05T14:57:10.786Z,12.23
2023-01-05T15:02:16.906Z,12.34
2023-01-05T15:07:20.993Z,12.40
2023-01-05T15:12:32.466Z,12.43
2023-01-05T15:17:44.622Z,12.37
2023-01-05T15:22:55.356Z,12.31
2023-01-05T15:27:56.277Z,12.31
2023-01-05T15:33:00.149Z,12.24
2023-01-05T15:37:57.043Z,12.07
2023-01-05T15:42:55.533Z,11.94
2023-01-05T15:47:52.841Z,11.96
2023-01-05T15:52:54.099Z,11.90
2023-01-05T15:57:52.407Z,11.73
2023-01-05T16:02:49.137Z,11.58
2023-01-05T16:07:48.182Z,11.68
2023-01-05T16:12:46.443Z,11.43
2023-01-05T16:17:43.127Z,11.44
2023-01-05T16:22:43.056Z,11.50
2023-01-05T16:27:40.488Z,11.55
2023-01-05T16:32:38.618Z,11.43
2023-01-05T16:37:35.272Z,11.52
2023-01-05T16:42:34.879Z,11.39
2023-01-05T16:47:33.383Z,11.41
2023-01-05T16:52:39.056Z,11.30
2023-01-05T16:57:43.116Z,11.49
2023-01-05T17:02:43.308Z,11.35
2023-01-05T17:07:42.683Z,11.42
2023-01-05T17:12:39.496Z,11.28
2023-01-05T17:17:36.080Z,11.24
2023-01-05T17:22:32.609Z,11.17
2023-01-05T17:27:29.870Z,10.98
2023-01-05T17:32:26.463Z,11.06
2023-01-05T17:37:23.122Z,10.94
2023-01-05T17:42:37.654Z,10.90
2023-01-05T17:52:32.368Z,10.81
2023-01-05T17:57:29.108Z,10.78
2023-01-05T18:02:25.970Z,10.88
2023-01-05T18:07:23.324Z,11.00
2023-01-05T18:12:19.941Z,11.09
2023-01-05T18:17:16.693Z,11.04
2023-01-05T18:22:13.731Z,11.08
2023-01-05T18:27:11.583Z,11.11
2023-01-05T18:32:11.725Z,11.34
2023-01-05T18:37:15.703Z,11.39
2023-01-05T18:42:18.223Z,11.34
2023-01-05T18:47:14.992Z,11.58
2023-01-05T18:52:11.740Z,11.52
2023-01-05T18:57:08.463Z,11.51
2023-01-05T19:02:06.277Z,11.58
2023-01-05T19:07:02.979Z,11.50
2023-01-05T19:11:59.467Z,11.44
2023-01-05T19:16:56.047Z,11.37
2023-01-05T19:21:54.728Z,11.27
2023-01-05T19:26:51.717Z,11.51
2023-01-05T19:31:48.673Z,11.55
2023-01-05T19:36:45.683Z,11.51
2023-01-05T19:41:46.491Z,11.29
2023-01-05T19:46:43.824Z,11.27
2023-01-05T19:51:40.371Z,11.33
2023-01-05T19:56:37.758Z,11.29
2023-01-05T20:01:35.805Z,11.21
2023-01-05T20:06:33.532Z,11.31
2023-01-05T20:11:39.156Z,11.08
2023-01-05T20:16:36.959Z,11.20
2023-01-05T20:21:33.592Z,11.16
2023-01-05T20:26:30.813Z,11.19
2023-01-05T20:31:29.003Z,11.08
2023-01-05T20:36:26.961Z,10.93
2023-01-05T20:41:24.564Z,10.99
2023-01-05T20:46:22.237Z,11.04
2023-01-05T20:51:20.580Z,10.94
2023-01-05T20:56:18.626Z,10.93
2023-01-05T21:01:15.348Z,11.09
2023-01-05T21:06:13.862Z,11.02
2023-01-05T21:11:15.180Z,10.84
2023-01-05T21:16:15.204Z,10.83
2023-01-05T21:21:13.458Z,10.90
2023-01-05T21:26:10.919Z,10.71
2023-01-05T21:31:11.709Z,10.70
2023-01-05T21:36:13.026Z,10.72
2023-01-05T21:41:10.475Z,10.51
2023-01-05T21:46:08.273Z,10.68
2023-01-05T21:51:23.424Z,10.46
2023-01-05T21:56:27.602Z,10.59
2023-01-05T22:01:24.817Z,10.63
2023-01-05T22:06:21.575Z,10.57
2023-01-05T22:11:18.182Z,10.46
2023-01-05T22:16:15.531Z,10.49
2023-01-05T22:21:14.304Z,10.40
2023-01-05T22:26:12.556Z,10.52
2023-01-05T22:31:10.122Z,10.57
2023-01-05T22:36:07.806Z,10.50
2023-01-05T22:41:04.983Z,10.42
2023-01-05T22:46:02.313Z,10.42
2023-01-05T22:51:02.128Z,10.46
2023-01-05T22:55:59.739Z,10.37
2023-01-05T23:01:07.589Z,10.35
2023-01-05T23:06:04.704Z,10.31
2023-01-05T23:11:02.788Z,10.43
2023-01-05T23:15:59.452Z,10.33
2023-01-05T23:20:56.941Z,10.43
2023-01-05T23:25:54.155Z,10.23
2023-01-05T23:30:52.049Z,10.22
2023-01-05T23:35:50.127Z,10.17
2023-01-05T23:40:47.803Z,9.96
2023-01-05T23:45:44.632Z,9.90
2023-01-05T23:50:42.500Z,9.40
2023-01-05T23:55:39.610Z,9.11
